sensor_id;sensor_type;location;lat;lon;timestamp;P1;durP1;ratioP1;P2;durP2;ratioP2
51558;SDS011;61650;48.882;2.092;2023-04-06T00:00:47;4.40;;;3.53;;
51558;SDS011;61650;48.882;2.092;2023-04-06T00:03:14;6.63;;;4.28;;
51558;SDS011;61650;48.882;2.092;2023-04-06T00:05:39;6.57;;;4.00;;
51558;SDS011;61650;48.882;2.092;2023-04-06T00:08:05;5.55;;;3.50;;
51558;SDS011;61650;48.882;2.092;2023-04-06T00:10:31;4.33;;;3.77;;
51558;SDS011;61650;48.882;2.092;2023-04-06T00:12:57;4.80;;;3.30;;
51558;SDS011;61650;48.882;2.092;2023-04-06T00:15:23;5.63;;;3.95;;
51558;SDS011;61650;48.882;2.092;2023-04-06T00:17:49;5.00;;;3.70;;
51558;SDS011;61650;48.882;2.092;2023-04-06T00:20:15;5.20;;;3.97;;
51558;SDS011;61650;48.882;2.092;2023-04-06T00:22:41;5.55;;;3.88;;
51558;SDS011;61650;48.882;2.092;2023-04-06T00:25:07;4.37;;;3.70;;
51558;SDS011;61650;48.882;2.092;2023-04-06T00:27:33;6.40;;;4.30;;
51558;SDS011;61650;48.882;2.092;2023-04-06T00:29:58;4.47;;;3.80;;
51558;SDS011;61650;48.882;2.092;2023-04-06T00:32:24;6.33;;;4.10;;
51558;SDS011;61650;48.882;2.092;2023-04-06T00:34:50;5.60;;;4.50;;
51558;SDS011;61650;48.882;2.092;2023-04-06T00:37:15;4.40;;;3.47;;
51558;SDS011;61650;48.882;2.092;2023-04-06T00:39:41;6.03;;;3.90;;
51558;SDS011;61650;48.882;2.092;2023-04-06T00:42:09;4.13;;;3.72;;
51558;SDS011;61650;48.882;2.092;2023-04-06T00:44:38;5.40;;;4.20;;
51558;SDS011;61650;48.882;2.092;2023-04-06T00:47:07;5.30;;;4.30;;
51558;SDS011;61650;48.882;2.092;2023-04-06T00:49:33;8.40;;;3.75;;
51558;SDS011;61650;48.882;2.092;2023-04-06T00:51:59;4.45;;;4.05;;
51558;SDS011;61650;48.882;2.092;2023-04-06T00:54:26;5.82;;;4.00;;
51558;SDS011;61650;48.882;2.092;2023-04-06T00:56:55;7.35;;;4.15;;
51558;SDS011;61650;48.882;2.092;2023-04-06T00:59:21;6.27;;;4.00;;
51558;SDS011;61650;48.882;2.092;2023-04-06T01:01:47;5.93;;;4.13;;
51558;SDS011;61650;48.882;2.092;2023-04-06T01:04:13;5.93;;;4.65;;
51558;SDS011;61650;48.882;2.092;2023-04-06T01:06:38;3.97;;;3.50;;
51558;SDS011;61650;48.882;2.092;2023-04-06T01:09:05;7.07;;;4.05;;
51558;SDS011;61650;48.882;2.092;2023-04-06T01:11:30;5.83;;;4.30;;
51558;SDS011;61650;48.882;2.092;2023-04-06T01:13:56;4.93;;;4.40;;
51558;SDS011;61650;48.882;2.092;2023-04-06T01:16:22;4.40;;;4.00;;
51558;SDS011;61650;48.882;2.092;2023-04-06T01:18:48;6.43;;;4.35;;
51558;SDS011;61650;48.882;2.092;2023-04-06T01:21:15;6.55;;;4.25;;
51558;SDS011;61650;48.882;2.092;2023-04-06T01:23:44;5.93;;;4.10;;
51558;SDS011;61650;48.882;2.092;2023-04-06T01:26:11;6.40;;;4.18;;
51558;SDS011;61650;48.882;2.092;2023-04-06T01:28:37;9.13;;;4.00;;
51558;SDS011;61650;48.882;2.092;2023-04-06T01:31:03;5.27;;;3.90;;
51558;SDS011;61650;48.882;2.092;2023-04-06T01:33:30;6.07;;;4.40;;
51558;SDS011;61650;48.882;2.092;2023-04-06T01:35:55;7.23;;;4.60;;
51558;SDS011;61650;48.882;2.092;2023-04-06T01:38:21;5.67;;;4.30;;
51558;SDS011;61650;48.882;2.092;2023-04-06T01:40:47;6.40;;;4.40;;
51558;SDS011;61650;48.882;2.092;2023-04-06T01:43:12;5.87;;;4.40;;
51558;SDS011;61650;48.882;2.092;2023-04-06T01:45:38;4.50;;;4.10;;
51558;SDS011;61650;48.882;2.092;2023-04-06T01:48:03;5.57;;;3.83;;
51558;SDS011;61650;48.882;2.092;2023-04-06T01:50:29;4.40;;;3.37;;
51558;SDS011;61650;48.882;2.092;2023-04-06T01:52:55;7.97;;;4.27;;
51558;SDS011;61650;48.882;2.092;2023-04-06T02:02:05;6.25;;;4.10;;
51558;SDS011;61650;48.882;2.092;2023-04-06T02:04:30;4.50;;;4.00;;
51558;SDS011;61650;48.882;2.092;2023-04-06T02:06:56;5.50;;;4.23;;
51558;SDS011;61650;48.882;2.092;2023-04-06T02:09:22;6.10;;;4.53;;
51558;SDS011;61650;48.882;2.092;2023-04-06T02:11:47;6.00;;;4.17;;
51558;SDS011;61650;48.882;2.092;2023-04-06T02:14:13;6.63;;;4.33;;
51558;SDS011;61650;48.882;2.092;2023-04-06T02:16:38;5.27;;;4.27;;
51558;SDS011;61650;48.882;2.092;2023-04-06T02:19:04;6.10;;;4.50;;
51558;SDS011;61650;48.882;2.092;2023-04-06T02:21:30;5.43;;;4.20;;
51558;SDS011;61650;48.882;2.092;2023-04-06T02:23:55;6.27;;;4.30;;
51558;SDS011;61650;48.882;2.092;2023-04-06T02:26:21;4.93;;;3.70;;
51558;SDS011;61650;48.882;2.092;2023-04-06T02:28:46;6.00;;;4.00;;
51558;SDS011;61650;48.882;2.092;2023-04-06T02:31:12;5.57;;;4.33;;
51558;SDS011;61650;48.882;2.092;2023-04-06T02:33:40;7.10;;;5.10;;
51558;SDS011;61650;48.882;2.092;2023-04-06T02:36:06;8.30;;;4.80;;
51558;SDS011;61650;48.882;2.092;2023-04-06T02:38:31;5.30;;;4.30;;
51558;SDS011;61650;48.882;2.092;2023-04-06T02:40:57;5.27;;;4.40;;
51558;SDS011;61650;48.882;2.092;2023-04-06T02:43:23;6.30;;;4.50;;
51558;SDS011;61650;48.882;2.092;2023-04-06T02:45:48;6.00;;;4.27;;
51558;SDS011;61650;48.882;2.092;2023-04-06T02:48:14;5.67;;;4.30;;
51558;SDS011;61650;48.882;2.092;2023-04-06T02:50:40;7.07;;;5.20;;
51558;SDS011;61650;48.882;2.092;2023-04-06T02:53:05;6.40;;;4.43;;
51558;SDS011;61650;48.882;2.092;2023-04-06T02:55:31;5.77;;;4.27;;
51558;SDS011;61650;48.882;2.092;2023-04-06T02:57:56;5.40;;;4.37;;
51558;SDS011;61650;48.882;2.092;2023-04-06T03:00:22;6.23;;;4.00;;
51558;SDS011;61650;48.882;2.092;2023-04-06T03:02:48;6.30;;;4.10;;
51558;SDS011;61650;48.882;2.092;2023-04-06T03:05:13;8.67;;;4.30;;
51558;SDS011;61650;48.882;2.092;2023-04-06T03:07:39;6.07;;;4.47;;
51558;SDS011;61650;48.882;2.092;2023-04-06T03:10:05;5.83;;;3.87;;
51558;SDS011;61650;48.882;2.092;2023-04-06T03:12:31;6.50;;;4.33;;
51558;SDS011;61650;48.882;2.092;2023-04-06T03:14:56;5.77;;;4.37;;
51558;SDS011;61650;48.882;2.092;2023-04-06T03:17:22;6.60;;;5.00;;
51558;SDS011;61650;48.882;2.092;2023-04-06T03:19:47;11.50;;;4.87;;
51558;SDS011;61650;48.882;2.092;2023-04-06T03:22:13;5.67;;;4.37;;
51558;SDS011;61650;48.882;2.092;2023-04-06T03:24:38;6.83;;;4.80;;
51558;SDS011;61650;48.882;2.092;2023-04-06T03:27:04;5.90;;;4.43;;
51558;SDS011;61650;48.882;2.092;2023-04-06T03:29:31;6.10;;;4.68;;
51558;SDS011;61650;48.882;2.092;2023-04-06T03:31:56;5.80;;;4.60;;
51558;SDS011;61650;48.882;2.092;2023-04-06T03:34:22;8.40;;;4.67;;
51558;SDS011;61650;48.882;2.092;2023-04-06T03:36:48;6.17;;;4.60;;
51558;SDS011;61650;48.882;2.092;2023-04-06T03:39:13;7.53;;;4.77;;
51558;SDS011;61650;48.882;2.092;2023-04-06T03:41:39;5.60;;;4.50;;
51558;SDS011;61650;48.882;2.092;2023-04-06T03:44:05;6.90;;;5.37;;
51558;SDS011;61650;48.882;2.092;2023-04-06T03:46:30;6.77;;;4.53;;
51558;SDS011;61650;48.882;2.092;2023-04-06T03:48:56;5.53;;;4.60;;
51558;SDS011;61650;48.882;2.092;2023-04-06T03:51:22;5.67;;;4.20;;
51558;SDS011;61650;48.882;2.092;2023-04-06T03:53:47;5.03;;;4.43;;
51558;SDS011;61650;48.882;2.092;2023-04-06T03:56:13;8.27;;;4.73;;
51558;SDS011;61650;48.882;2.092;2023-04-06T03:58:39;5.20;;;4.68;;
51558;SDS011;61650;48.882;2.092;2023-04-06T04:01:05;7.50;;;5.40;;
51558;SDS011;61650;48.882;2.092;2023-04-06T04:03:30;6.27;;;4.50;;
51558;SDS011;61650;48.882;2.092;2023-04-06T04:05:56;6.97;;;5.47;;
51558;SDS011;61650;48.882;2.092;2023-04-06T04:08:21;7.57;;;5.63;;
51558;SDS011;61650;48.882;2.092;2023-04-06T04:10:48;8.45;;;5.75;;
51558;SDS011;61650;48.882;2.092;2023-04-06T04:13:13;7.00;;;4.80;;
51558;SDS011;61650;48.882;2.092;2023-04-06T04:15:39;5.80;;;4.83;;
51558;SDS011;61650;48.882;2.092;2023-04-06T04:18:05;8.20;;;4.90;;
51558;SDS011;61650;48.882;2.092;2023-04-06T04:20:31;7.70;;;5.35;;
51558;SDS011;61650;48.882;2.092;2023-04-06T04:22:57;6.00;;;5.30;;
51558;SDS011;61650;48.882;2.092;2023-04-06T04:25:23;11.50;;;5.97;;
51558;SDS011;61650;48.882;2.092;2023-04-06T04:27:48;5.37;;;4.63;;
51558;SDS011;61650;48.882;2.092;2023-04-06T04:30:15;8.82;;;5.85;;
51558;SDS011;61650;48.882;2.092;2023-04-06T04:32:41;6.43;;;4.70;;
51558;SDS011;61650;48.882;2.092;2023-04-06T04:35:07;7.50;;;5.93;;
51558;SDS011;61650;48.882;2.092;2023-04-06T04:37:33;9.15;;;6.55;;
51558;SDS011;61650;48.882;2.092;2023-04-06T04:40:00;7.50;;;5.53;;
51558;SDS011;61650;48.882;2.092;2023-04-06T04:42:25;11.67;;;6.03;;
51558;SDS011;61650;48.882;2.092;2023-04-06T04:44:51;9.17;;;6.00;;
51558;SDS011;61650;48.882;2.092;2023-04-06T04:47:17;11.60;;;6.80;;
51558;SDS011;61650;48.882;2.092;2023-04-06T04:49:42;9.90;;;7.67;;
51558;SDS011;61650;48.882;2.092;2023-04-06T04:52:08;10.97;;;6.20;;
51558;SDS011;61650;48.882;2.092;2023-04-06T04:54:33;11.30;;;7.10;;
51558;SDS011;61650;48.882;2.092;2023-04-06T04:56:59;10.50;;;6.20;;
51558;SDS011;61650;48.882;2.092;2023-04-06T04:59:24;9.10;;;6.57;;
51558;SDS011;61650;48.882;2.092;2023-04-06T05:01:50;8.13;;;6.20;;
51558;SDS011;61650;48.882;2.092;2023-04-06T05:04:16;8.13;;;6.53;;
51558;SDS011;61650;48.882;2.092;2023-04-06T05:06:41;10.17;;;7.40;;
51558;SDS011;61650;48.882;2.092;2023-04-06T05:09:07;9.37;;;6.83;;
51558;SDS011;61650;48.882;2.092;2023-04-06T05:11:32;13.53;;;8.30;;
51558;SDS011;61650;48.882;2.092;2023-04-06T05:13:58;12.10;;;7.20;;
51558;SDS011;61650;48.882;2.092;2023-04-06T05:16:24;8.45;;;6.28;;
51558;SDS011;61650;48.882;2.092;2023-04-06T05:18:50;9.70;;;6.80;;
51558;SDS011;61650;48.882;2.092;2023-04-06T05:21:16;10.83;;;6.80;;
51558;SDS011;61650;48.882;2.092;2023-04-06T05:23:41;12.23;;;7.50;;
51558;SDS011;61650;48.882;2.092;2023-04-06T05:26:07;10.70;;;7.37;;
51558;SDS011;61650;48.882;2.092;2023-04-06T05:28:32;10.60;;;7.27;;
51558;SDS011;61650;48.882;2.092;2023-04-06T05:30:58;11.17;;;7.77;;
51558;SDS011;61650;48.882;2.092;2023-04-06T05:33:24;9.07;;;6.77;;
51558;SDS011;61650;48.882;2.092;2023-04-06T05:35:50;9.30;;;5.97;;
51558;SDS011;61650;48.882;2.092;2023-04-06T05:38:15;9.80;;;6.77;;
51558;SDS011;61650;48.882;2.092;2023-04-06T05:40:41;8.53;;;7.23;;
51558;SDS011;61650;48.882;2.092;2023-04-06T05:43:07;9.38;;;6.97;;
51558;SDS011;61650;48.882;2.092;2023-04-06T05:45:33;11.10;;;6.67;;
51558;SDS011;61650;48.882;2.092;2023-04-06T05:47:59;9.82;;;7.50;;
51558;SDS011;61650;48.882;2.092;2023-04-06T05:50:26;12.73;;;7.20;;
51558;SDS011;61650;48.882;2.092;2023-04-06T05:52:51;7.90;;;6.73;;
51558;SDS011;61650;48.882;2.092;2023-04-06T05:55:17;11.67;;;7.27;;
51558;SDS011;61650;48.882;2.092;2023-04-06T05:57:42;10.53;;;6.67;;
51558;SDS011;61650;48.882;2.092;2023-04-06T06:00:08;15.07;;;7.53;;
51558;SDS011;61650;48.882;2.092;2023-04-06T06:02:35;10.50;;;6.20;;
51558;SDS011;61650;48.882;2.092;2023-04-06T06:05:01;10.10;;;7.35;;
51558;SDS011;61650;48.882;2.092;2023-04-06T06:07:27;11.83;;;6.87;;
51558;SDS011;61650;48.882;2.092;2023-04-06T06:09:55;11.60;;;7.07;;
51558;SDS011;61650;48.882;2.092;2023-04-06T06:12:23;12.82;;;7.82;;
51558;SDS011;61650;48.882;2.092;2023-04-06T06:14:48;10.93;;;7.77;;
51558;SDS011;61650;48.882;2.092;2023-04-06T06:17:14;11.07;;;7.43;;
51558;SDS011;61650;48.882;2.092;2023-04-06T06:19:40;11.07;;;8.13;;
51558;SDS011;61650;48.882;2.092;2023-04-06T06:22:06;10.97;;;7.40;;
51558;SDS011;61650;48.882;2.092;2023-04-06T06:24:31;11.17;;;7.70;;
51558;SDS011;61650;48.882;2.092;2023-04-06T06:26:57;12.00;;;8.40;;
51558;SDS011;61650;48.882;2.092;2023-04-06T06:29:23;11.55;;;7.60;;
51558;SDS011;61650;48.882;2.092;2023-04-06T06:31:49;12.77;;;7.90;;
51558;SDS011;61650;48.882;2.092;2023-04-06T06:34:14;11.73;;;7.90;;
51558;SDS011;61650;48.882;2.092;2023-04-06T06:36:40;11.10;;;7.97;;
51558;SDS011;61650;48.882;2.092;2023-04-06T06:39:06;12.73;;;8.40;;
51558;SDS011;61650;48.882;2.092;2023-04-06T06:41:31;9.90;;;7.33;;
51558;SDS011;61650;48.882;2.092;2023-04-06T06:43:57;12.40;;;8.50;;
51558;SDS011;61650;48.882;2.092;2023-04-06T06:46:22;12.87;;;7.77;;
51558;SDS011;61650;48.882;2.092;2023-04-06T06:48:48;11.03;;;7.60;;
51558;SDS011;61650;48.882;2.092;2023-04-06T06:51:14;13.80;;;8.03;;
51558;SDS011;61650;48.882;2.092;2023-04-06T06:53:39;11.20;;;8.40;;
51558;SDS011;61650;48.882;2.092;2023-04-06T06:56:05;11.77;;;8.30;;
51558;SDS011;61650;48.882;2.092;2023-04-06T06:58:31;14.03;;;8.30;;
51558;SDS011;61650;48.882;2.092;2023-04-06T07:00:57;13.17;;;7.40;;
51558;SDS011;61650;48.882;2.092;2023-04-06T07:03:23;13.38;;;8.38;;
51558;SDS011;61650;48.882;2.092;2023-04-06T07:05:49;12.87;;;9.13;;
51558;SDS011;61650;48.882;2.092;2023-04-06T07:08:18;12.73;;;8.40;;
51558;SDS011;61650;48.882;2.092;2023-04-06T07:10:47;14.73;;;7.70;;
51558;SDS011;61650;48.882;2.092;2023-04-06T07:13:14;10.77;;;8.52;;
51558;SDS011;61650;48.882;2.092;2023-04-06T07:15:46;13.30;;;8.10;;
51558;SDS011;61650;48.882;2.092;2023-04-06T07:18:12;14.10;;;8.53;;
51558;SDS011;61650;48.882;2.092;2023-04-06T07:20:38;15.80;;;9.00;;
51558;SDS011;61650;48.882;2.092;2023-04-06T07:23:03;12.03;;;9.30;;
51558;SDS011;61650;48.882;2.092;2023-04-06T07:25:29;15.40;;;9.70;;
51558;SDS011;61650;48.882;2.092;2023-04-06T07:27:55;13.40;;;8.50;;
51558;SDS011;61650;48.882;2.092;2023-04-06T07:30:21;16.02;;;9.10;;
51558;SDS011;61650;48.882;2.092;2023-04-06T07:32:48;13.10;;;9.43;;
51558;SDS011;61650;48.882;2.092;2023-04-06T07:35:14;16.25;;;10.15;;
51558;SDS011;61650;48.882;2.092;2023-04-06T07:37:40;14.73;;;8.82;;
51558;SDS011;61650;48.882;2.092;2023-04-06T07:40:06;14.80;;;9.40;;
51558;SDS011;61650;48.882;2.092;2023-04-06T07:42:31;14.23;;;10.57;;
51558;SDS011;61650;48.882;2.092;2023-04-06T07:44:58;19.10;;;10.00;;
51558;SDS011;61650;48.882;2.092;2023-04-06T07:47:23;15.60;;;9.00;;
51558;SDS011;61650;48.882;2.092;2023-04-06T07:49:49;15.27;;;10.10;;
51558;SDS011;61650;48.882;2.092;2023-04-06T07:52:15;17.73;;;10.10;;
51558;SDS011;61650;48.882;2.092;2023-04-06T07:54:40;18.50;;;10.57;;
51558;SDS011;61650;48.882;2.092;2023-04-06T07:57:07;17.42;;;10.15;;
51558;SDS011;61650;48.882;2.092;2023-04-06T07:59:32;16.10;;;9.87;;
51558;SDS011;61650;48.882;2.092;2023-04-06T08:01:58;19.80;;;11.37;;
51558;SDS011;61650;48.882;2.092;2023-04-06T08:04:23;14.90;;;9.50;;
51558;SDS011;61650;48.882;2.092;2023-04-06T08:06:49;15.50;;;10.00;;
51558;SDS011;61650;48.882;2.092;2023-04-06T08:09:15;16.37;;;10.83;;
51558;SDS011;61650;48.882;2.092;2023-04-06T08:11:40;15.50;;;9.70;;
51558;SDS011;61650;48.882;2.092;2023-04-06T08:14:06;13.70;;;9.40;;
51558;SDS011;61650;48.882;2.092;2023-04-06T08:16:32;16.00;;;9.97;;
51558;SDS011;61650;48.882;2.092;2023-04-06T08:18:57;17.00;;;11.40;;
51558;SDS011;61650;48.882;2.092;2023-04-06T08:21:23;17.00;;;10.73;;
51558;SDS011;61650;48.882;2.092;2023-04-06T08:23:48;14.80;;;9.70;;
51558;SDS011;61650;48.882;2.092;2023-04-06T08:26:14;15.20;;;9.90;;
51558;SDS011;61650;48.882;2.092;2023-04-06T08:28:40;14.07;;;8.17;;
51558;SDS011;61650;48.882;2.092;2023-04-06T08:31:05;13.93;;;9.50;;
51558;SDS011;61650;48.882;2.092;2023-04-06T08:33:32;14.33;;;9.77;;
51558;SDS011;61650;48.882;2.092;2023-04-06T08:36:06;11.85;;;7.85;;
51558;SDS011;61650;48.882;2.092;2023-04-06T08:38:36;15.90;;;10.55;;
51558;SDS011;61650;48.882;2.092;2023-04-06T08:43:36;15.10;;;9.70;;
51558;SDS011;61650;48.882;2.092;2023-04-06T08:46:13;14.98;;;9.48;;
51558;SDS011;61650;48.882;2.092;2023-04-06T08:48:40;12.27;;;8.65;;
51558;SDS011;61650;48.882;2.092;2023-04-06T08:51:07;15.55;;;9.20;;
51558;SDS011;61650;48.882;2.092;2023-04-06T08:53:34;16.23;;;10.10;;
51558;SDS011;61650;48.882;2.092;2023-04-06T08:56:00;12.07;;;8.27;;
51558;SDS011;61650;48.882;2.092;2023-04-06T08:58:28;14.82;;;8.52;;
51558;SDS011;61650;48.882;2.092;2023-04-06T09:00:59;13.15;;;7.80;;
51558;SDS011;61650;48.882;2.092;2023-04-06T09:03:25;12.90;;;8.70;;
51558;SDS011;61650;48.882;2.092;2023-04-06T09:05:52;13.63;;;8.75;;
51558;SDS011;61650;48.882;2.092;2023-04-06T09:08:18;16.15;;;8.90;;
51558;SDS011;61650;48.882;2.092;2023-04-06T09:10:44;15.07;;;8.80;;
51558;SDS011;61650;48.882;2.092;2023-04-06T09:13:10;13.90;;;8.70;;
51558;SDS011;61650;48.882;2.092;2023-04-06T09:15:36;10.77;;;7.50;;
51558;SDS011;61650;48.882;2.092;2023-04-06T09:18:02;11.48;;;7.88;;
51558;SDS011;61650;48.882;2.092;2023-04-06T09:20:28;12.33;;;7.47;;
51558;SDS011;61650;48.882;2.092;2023-04-06T09:22:54;12.17;;;7.60;;
51558;SDS011;61650;48.882;2.092;2023-04-06T09:25:21;11.80;;;8.30;;
51558;SDS011;61650;48.882;2.092;2023-04-06T09:27:48;10.10;;;8.03;;
51558;SDS011;61650;48.882;2.092;2023-04-06T09:30:23;12.80;;;7.22;;
51558;SDS011;61650;48.882;2.092;2023-04-06T09:32:51;9.70;;;6.60;;
51558;SDS011;61650;48.882;2.092;2023-04-06T09:35:18;11.23;;;6.53;;
51558;SDS011;61650;48.882;2.092;2023-04-06T09:37:45;11.70;;;6.55;;
51558;SDS011;61650;48.882;2.092;2023-04-06T09:40:12;6.80;;;4.50;;
51558;SDS011;61650;48.882;2.092;2023-04-06T09:42:41;8.27;;;5.90;;
51558;SDS011;61650;48.882;2.092;2023-04-06T09:45:08;8.80;;;6.10;;
51558;SDS011;61650;48.882;2.092;2023-04-06T09:47:35;8.00;;;5.97;;
51558;SDS011;61650;48.882;2.092;2023-04-06T09:50:02;10.10;;;5.80;;
51558;SDS011;61650;48.882;2.092;2023-04-06T09:52:32;8.55;;;6.00;;
51558;SDS011;61650;48.882;2.092;2023-04-06T09:55:01;7.97;;;5.27;;
51558;SDS011;61650;48.882;2.092;2023-04-06T09:57:32;7.87;;;5.70;;
51558;SDS011;61650;48.882;2.092;2023-04-06T10:05:13;6.90;;;4.60;;
51558;SDS011;61650;48.882;2.092;2023-04-06T10:07:44;10.47;;;4.87;;
51558;SDS011;61650;48.882;2.092;2023-04-06T10:10:11;8.50;;;5.30;;
51558;SDS011;61650;48.882;2.092;2023-04-06T10:12:39;6.23;;;4.60;;
51558;SDS011;61650;48.882;2.092;2023-04-06T10:15:05;5.97;;;3.70;;
51558;SDS011;61650;48.882;2.092;2023-04-06T10:17:32;9.88;;;5.93;;
51558;SDS011;61650;48.882;2.092;2023-04-06T10:19:59;7.83;;;5.63;;
51558;SDS011;61650;48.882;2.092;2023-04-06T10:22:42;7.93;;;4.87;;
51558;SDS011;61650;48.882;2.092;2023-04-06T10:25:25;7.93;;;5.20;;
51558;SDS011;61650;48.882;2.092;2023-04-06T10:27:58;9.00;;;4.77;;
51558;SDS011;61650;48.882;2.092;2023-04-06T10:30:30;7.50;;;5.83;;
51558;SDS011;61650;48.882;2.092;2023-04-06T10:32:57;8.43;;;5.20;;
51558;SDS011;61650;48.882;2.092;2023-04-06T10:35:22;8.30;;;7.17;;
51558;SDS011;61650;48.882;2.092;2023-04-06T10:37:49;11.17;;;6.90;;
51558;SDS011;61650;48.882;2.092;2023-04-06T10:40:26;10.80;;;6.50;;
51558;SDS011;61650;48.882;2.092;2023-04-06T10:42:52;10.03;;;5.87;;
51558;SDS011;61650;48.882;2.092;2023-04-06T10:45:23;10.70;;;7.20;;
51558;SDS011;61650;48.882;2.092;2023-04-06T10:47:50;7.00;;;4.80;;
51558;SDS011;61650;48.882;2.092;2023-04-06T10:50:17;11.27;;;7.00;;
51558;SDS011;61650;48.882;2.092;2023-04-06T10:52:44;8.83;;;5.80;;
51558;SDS011;61650;48.882;2.092;2023-04-06T10:55:22;7.27;;;4.47;;
51558;SDS011;61650;48.882;2.092;2023-04-06T10:57:49;8.83;;;4.60;;
51558;SDS011;61650;48.882;2.092;2023-04-06T11:00:14;7.17;;;4.87;;
51558;SDS011;61650;48.882;2.092;2023-04-06T11:02:40;7.80;;;5.00;;
51558;SDS011;61650;48.882;2.092;2023-04-06T11:05:06;8.50;;;5.37;;
51558;SDS011;61650;48.882;2.092;2023-04-06T11:07:32;6.27;;;3.93;;
51558;SDS011;61650;48.882;2.092;2023-04-06T11:09:58;6.63;;;4.40;;
51558;SDS011;61650;48.882;2.092;2023-04-06T11:12:24;4.77;;;3.77;;
51558;SDS011;61650;48.882;2.092;2023-04-06T11:14:52;5.30;;;3.50;;
51558;SDS011;61650;48.882;2.092;2023-04-06T11:17:27;4.83;;;3.20;;
51558;SDS011;61650;48.882;2.092;2023-04-06T11:19:54;3.70;;;3.03;;
51558;SDS011;61650;48.882;2.092;2023-04-06T11:22:20;4.13;;;3.03;;
51558;SDS011;61650;48.882;2.092;2023-04-06T11:24:46;5.27;;;3.13;;
51558;SDS011;61650;48.882;2.092;2023-04-06T11:27:12;4.87;;;2.60;;
51558;SDS011;61650;48.882;2.092;2023-04-06T11:29:39;3.17;;;2.77;;
51558;SDS011;61650;48.882;2.092;2023-04-06T11:32:06;3.40;;;2.60;;
51558;SDS011;61650;48.882;2.092;2023-04-06T11:34:36;4.53;;;2.37;;
51558;SDS011;61650;48.882;2.092;2023-04-06T11:37:06;3.73;;;3.07;;
51558;SDS011;61650;48.882;2.092;2023-04-06T11:39:38;5.23;;;2.80;;
51558;SDS011;61650;48.882;2.092;2023-04-06T11:42:08;7.47;;;3.70;;
51558;SDS011;61650;48.882;2.092;2023-04-06T11:44:35;4.17;;;3.00;;
51558;SDS011;61650;48.882;2.092;2023-04-06T11:47:05;4.00;;;2.80;;
51558;SDS011;61650;48.882;2.092;2023-04-06T11:49:33;3.20;;;2.90;;
51558;SDS011;61650;48.882;2.092;2023-04-06T11:52:01;4.00;;;2.80;;
51558;SDS011;61650;48.882;2.092;2023-04-06T11:54:37;4.83;;;2.70;;
51558;SDS011;61650;48.882;2.092;2023-04-06T11:57:03;2.90;;;2.60;;
51558;SDS011;61650;48.882;2.092;2023-04-06T11:59:30;4.03;;;2.87;;
51558;SDS011;61650;48.882;2.092;2023-04-06T12:01:56;2.23;;;2.03;;
51558;SDS011;61650;48.882;2.092;2023-04-06T12:04:22;3.70;;;2.40;;
51558;SDS011;61650;48.882;2.092;2023-04-06T12:06:48;3.57;;;2.40;;
51558;SDS011;61650;48.882;2.092;2023-04-06T12:09:14;3.37;;;2.07;;
51558;SDS011;61650;48.882;2.092;2023-04-06T12:11:40;2.80;;;2.00;;
51558;SDS011;61650;48.882;2.092;2023-04-06T12:14:06;2.50;;;1.93;;
51558;SDS011;61650;48.882;2.092;2023-04-06T12:16:32;3.70;;;1.80;;
51558;SDS011;61650;48.882;2.092;2023-04-06T12:18:59;2.90;;;1.90;;
51558;SDS011;61650;48.882;2.092;2023-04-06T12:21:26;2.40;;;2.13;;
51558;SDS011;61650;48.882;2.092;2023-04-06T12:23:53;1.87;;;1.67;;
51558;SDS011;61650;48.882;2.092;2023-04-06T12:26:19;1.77;;;1.43;;
51558;SDS011;61650;48.882;2.092;2023-04-06T12:28:44;2.57;;;1.90;;
51558;SDS011;61650;48.882;2.092;2023-04-06T12:31:20;2.13;;;1.93;;
51558;SDS011;61650;48.882;2.092;2023-04-06T12:33:46;2.30;;;2.10;;
51558;SDS011;61650;48.882;2.092;2023-04-06T12:36:17;3.00;;;1.53;;
51558;SDS011;61650;48.882;2.092;2023-04-06T12:38:45;1.87;;;1.50;;
51558;SDS011;61650;48.882;2.092;2023-04-06T12:41:12;2.80;;;1.60;;
51558;SDS011;61650;48.882;2.092;2023-04-06T12:43:39;2.60;;;1.60;;
51558;SDS011;61650;48.882;2.092;2023-04-06T12:46:05;2.50;;;1.80;;
51558;SDS011;61650;48.882;2.092;2023-04-06T12:48:31;2.30;;;1.80;;
51558;SDS011;61650;48.882;2.092;2023-04-06T12:50:57;2.27;;;1.70;;
51558;SDS011;61650;48.882;2.092;2023-04-06T12:53:25;3.10;;;1.77;;
51558;SDS011;61650;48.882;2.092;2023-04-06T12:55:51;2.40;;;1.23;;
51558;SDS011;61650;48.882;2.092;2023-04-06T12:58:18;1.97;;;1.47;;
51558;SDS011;61650;48.882;2.092;2023-04-06T13:00:44;1.60;;;1.47;;
51558;SDS011;61650;48.882;2.092;2023-04-06T13:03:10;4.57;;;1.47;;
51558;SDS011;61650;48.882;2.092;2023-04-06T13:05:35;2.00;;;1.60;;
51558;SDS011;61650;48.882;2.092;2023-04-06T13:08:08;2.23;;;1.43;;
51558;SDS011;61650;48.882;2.092;2023-04-06T13:10:33;1.57;;;1.03;;
51558;SDS011;61650;48.882;2.092;2023-04-06T13:12:59;2.87;;;1.43;;
51558;SDS011;61650;48.882;2.092;2023-04-06T13:15:25;3.37;;;1.50;;
51558;SDS011;61650;48.882;2.092;2023-04-06T13:17:50;4.27;;;1.33;;
51558;SDS011;61650;48.882;2.092;2023-04-06T13:20:16;1.97;;;1.37;;
51558;SDS011;61650;48.882;2.092;2023-04-06T13:22:42;1.40;;;1.03;;
51558;SDS011;61650;48.882;2.092;2023-04-06T13:25:07;1.87;;;1.20;;
51558;SDS011;61650;48.882;2.092;2023-04-06T13:27:33;3.20;;;1.50;;
51558;SDS011;61650;48.882;2.092;2023-04-06T13:30:00;1.50;;;1.30;;
51558;SDS011;61650;48.882;2.092;2023-04-06T13:32:27;2.00;;;1.20;;
51558;SDS011;61650;48.882;2.092;2023-04-06T13:34:56;1.63;;;1.13;;
51558;SDS011;61650;48.882;2.092;2023-04-06T13:37:22;2.30;;;1.30;;
51558;SDS011;61650;48.882;2.092;2023-04-06T13:39:48;10.07;;;4.50;;
51558;SDS011;61650;48.882;2.092;2023-04-06T13:42:13;4.50;;;2.70;;
51558;SDS011;61650;48.882;2.092;2023-04-06T13:44:39;1.70;;;1.10;;
51558;SDS011;61650;48.882;2.092;2023-04-06T13:47:04;5.00;;;1.50;;
51558;SDS011;61650;48.882;2.092;2023-04-06T13:49:30;2.77;;;1.30;;
51558;SDS011;61650;48.882;2.092;2023-04-06T13:51:56;1.80;;;1.40;;
51558;SDS011;61650;48.882;2.092;2023-04-06T13:54:22;1.10;;;1.00;;
51558;SDS011;61650;48.882;2.092;2023-04-06T13:56:47;2.33;;;1.00;;
51558;SDS011;61650;48.882;2.092;2023-04-06T13:59:13;2.80;;;1.10;;
51558;SDS011;61650;48.882;2.092;2023-04-06T14:01:38;4.00;;;0.90;;
51558;SDS011;61650;48.882;2.092;2023-04-06T14:04:04;1.87;;;1.00;;
51558;SDS011;61650;48.882;2.092;2023-04-06T14:06:30;2.70;;;1.30;;
51558;SDS011;61650;48.882;2.092;2023-04-06T14:08:55;1.83;;;1.17;;
51558;SDS011;61650;48.882;2.092;2023-04-06T14:11:21;2.47;;;1.10;;
51558;SDS011;61650;48.882;2.092;2023-04-06T14:13:47;2.77;;;1.60;;
51558;SDS011;61650;48.882;2.092;2023-04-06T14:16:13;2.10;;;1.40;;
51558;SDS011;61650;48.882;2.092;2023-04-06T14:18:38;2.07;;;1.27;;
51558;SDS011;61650;48.882;2.092;2023-04-06T14:21:04;2.07;;;1.17;;
51558;SDS011;61650;48.882;2.092;2023-04-06T14:23:30;1.70;;;1.10;;
51558;SDS011;61650;48.882;2.092;2023-04-06T14:26:00;1.53;;;1.10;;
51558;SDS011;61650;48.882;2.092;2023-04-06T14:28:31;2.50;;;0.90;;
51558;SDS011;61650;48.882;2.092;2023-04-06T14:31:01;2.10;;;1.10;;
51558;SDS011;61650;48.882;2.092;2023-04-06T14:33:29;3.20;;;1.00;;
51558;SDS011;61650;48.882;2.092;2023-04-06T14:35:55;3.90;;;1.40;;
51558;SDS011;61650;48.882;2.092;2023-04-06T14:38:21;1.40;;;1.00;;
51558;SDS011;61650;48.882;2.092;2023-04-06T14:40:47;2.30;;;1.00;;
51558;SDS011;61650;48.882;2.092;2023-04-06T14:43:13;4.20;;;1.33;;
51558;SDS011;61650;48.882;2.092;2023-04-06T14:45:38;3.30;;;1.73;;
51558;SDS011;61650;48.882;2.092;2023-04-06T14:48:04;3.27;;;1.40;;
51558;SDS011;61650;48.882;2.092;2023-04-06T14:50:37;2.90;;;1.00;;
51558;SDS011;61650;48.882;2.092;2023-04-06T14:53:03;2.27;;;1.30;;